RYR45EE EBCI-GCFV
Flight info
| Callsign | RYR45EE |
|---|---|
| Flight time | 4h 9m |
| Altitude | 31000 |
| Route | CIV N872 LESDO DCT KOVIN/N0442F330 DCT NIDUV DCT KIHVI UN872 ERIGA UZ218 FUJTI DCT BAKUP/N0447F350 DCT BATAX DCT TAKAV DCT VEDOD UN857 TERTO |
| Aircraft | B738/M-SDE3FGIJ1LRWY/SB1 |
Departure
| Time | 2026-05-08 12:07 |
|---|---|
| Airport | Brussels South Charleroi Airport (EBCI) |
Arrival
| Time | 2026-05-08 16:16 |
|---|---|
| Airport | Fuerteventura Airport (GCFV) |
| Time | Latitude | Longitude | Altitude | Speed | Heading |
|---|---|---|---|---|---|
| 2026-05-08 11:30 | 50.46869 | 4.47098 | 569 ft | 0 kts | 335° |
| 2026-05-08 11:56 | 50.46869 | 4.47099 | 569 ft | 0 kts | 335° |
| 2026-05-08 11:56 | 50.46861 | 4.47104 | 569 ft | 2 kts | 335° |
| 2026-05-08 11:57 | 50.46849 | 4.47118 | 568 ft | 2 kts | 311° |
| 2026-05-08 11:57 | 50.46840 | 4.47137 | 568 ft | 2 kts | 295° |
| 2026-05-08 11:57 | 50.46835 | 4.47160 | 567 ft | 2 kts | 276° |
| 2026-05-08 11:57 | 50.46836 | 4.47184 | 567 ft | 2 kts | 258° |
| 2026-05-08 11:58 | 50.46838 | 4.47199 | 567 ft | 0 kts | 246° |
| 2026-05-08 11:58 | 50.46841 | 4.47208 | 566 ft | 0 kts | 244° |
| 2026-05-08 12:00 | 50.46840 | 4.47202 | 566 ft | 1 kts | 244° |
| 2026-05-08 12:00 | 50.46833 | 4.47180 | 567 ft | 3 kts | 245° |
| 2026-05-08 12:00 | 50.46823 | 4.47145 | 568 ft | 4 kts | 245° |
| 2026-05-08 12:01 | 50.46807 | 4.47091 | 570 ft | 6 kts | 245° |
| 2026-05-08 12:01 | 50.46786 | 4.47017 | 572 ft | 8 kts | 245° |
| 2026-05-08 12:01 | 50.46759 | 4.46922 | 575 ft | 10 kts | 245° |
| 2026-05-08 12:01 | 50.46725 | 4.46806 | 578 ft | 12 kts | 239° |
| 2026-05-08 12:02 | 50.46646 | 4.46795 | 578 ft | 13 kts | 161° |
| 2026-05-08 12:02 | 50.46575 | 4.46692 | 581 ft | 16 kts | 244° |
| 2026-05-08 12:02 | 50.46525 | 4.46515 | 585 ft | 19 kts | 246° |
| 2026-05-08 12:02 | 50.46467 | 4.46310 | 590 ft | 21 kts | 244° |
| 2026-05-08 12:03 | 50.46399 | 4.46083 | 595 ft | 24 kts | 245° |
| 2026-05-08 12:03 | 50.46324 | 4.45824 | 600 ft | 27 kts | 246° |
| 2026-05-08 12:03 | 50.46249 | 4.45564 | 603 ft | 25 kts | 245° |
| 2026-05-08 12:03 | 50.46179 | 4.45327 | 604 ft | 23 kts | 245° |
| 2026-05-08 12:04 | 50.46113 | 4.45100 | 604 ft | 22 kts | 245° |
| 2026-05-08 12:04 | 50.46053 | 4.44883 | 602 ft | 21 kts | 245° |
| 2026-05-08 12:04 | 50.45991 | 4.44675 | 602 ft | 20 kts | 244° |
| 2026-05-08 12:04 | 50.45932 | 4.44483 | 603 ft | 18 kts | 238° |
| 2026-05-08 12:05 | 50.45862 | 4.44331 | 604 ft | 16 kts | 232° |
| 2026-05-08 12:05 | 50.45795 | 4.44196 | 605 ft | 14 kts | 231° |
| 2026-05-08 12:05 | 50.45736 | 4.44077 | 605 ft | 12 kts | 233° |
| 2026-05-08 12:05 | 50.45680 | 4.43982 | 606 ft | 10 kts | 199° |
| 2026-05-08 12:06 | 50.45625 | 4.44027 | 606 ft | 9 kts | 88° |
| 2026-05-08 12:06 | 50.45652 | 4.44132 | 605 ft | 16 kts | 65° |
| 2026-05-08 12:06 | 50.45800 | 4.44642 | 603 ft | 85 kts | 65° |
| 2026-05-08 12:06 | 50.46130 | 4.45788 | 602 ft | 144 kts | 64° |
| 2026-05-08 12:07 | 50.46616 | 4.47434 | 796 ft | 175 kts | 64° |
| 2026-05-08 12:07 | 50.47139 | 4.49113 | 1524 ft | 171 kts | 57° |
| 2026-05-08 12:07 | 50.47939 | 4.50450 | 2174 ft | 175 kts | 34° |
| 2026-05-08 12:07 | 50.48994 | 4.51460 | 2733 ft | 183 kts | 38° |
| 2026-05-08 12:08 | 50.49889 | 4.52933 | 3216 ft | 194 kts | 54° |
| 2026-05-08 12:08 | 50.50713 | 4.54744 | 3648 ft | 211 kts | 55° |
| 2026-05-08 12:08 | 50.51609 | 4.56658 | 4109 ft | 227 kts | 53° |
| 2026-05-08 12:08 | 50.52576 | 4.58643 | 4687 ft | 235 kts | 53° |
| 2026-05-08 12:09 | 50.53750 | 4.60524 | 5066 ft | 254 kts | 33° |
| 2026-05-08 12:09 | 50.55471 | 4.61460 | 5536 ft | 269 kts | 5° |
| 2026-05-08 12:09 | 50.57344 | 4.61130 | 6107 ft | 278 kts | 342° |
| 2026-05-08 12:09 | 50.59086 | 4.59826 | 6812 ft | 281 kts | 323° |
| 2026-05-08 12:10 | 50.60366 | 4.57521 | 7521 ft | 282 kts | 293° |
| 2026-05-08 12:10 | 50.60796 | 4.54603 | 8236 ft | 280 kts | 268° |
| 2026-05-08 12:10 | 50.60692 | 4.51551 | 8968 ft | 280 kts | 264° |
| 2026-05-08 12:10 | 50.60521 | 4.48504 | 9673 ft | 282 kts | 263° |
| 2026-05-08 12:11 | 50.60359 | 4.45451 | 10340 ft | 285 kts | 264° |
| 2026-05-08 12:11 | 50.60204 | 4.42240 | 10725 ft | 299 kts | 264° |
| 2026-05-08 12:11 | 50.60050 | 4.38888 | 11093 ft | 313 kts | 265° |
| 2026-05-08 12:11 | 50.59892 | 4.35373 | 11410 ft | 328 kts | 265° |
| 2026-05-08 12:12 | 50.59728 | 4.31712 | 11779 ft | 342 kts | 265° |
| 2026-05-08 12:12 | 50.59560 | 4.27979 | 12353 ft | 347 kts | 265° |
| 2026-05-08 12:12 | 50.59387 | 4.24183 | 12978 ft | 352 kts | 265° |
| 2026-05-08 12:12 | 50.59209 | 4.20289 | 13620 ft | 355 kts | 265° |
| 2026-05-08 12:13 | 50.59029 | 4.16396 | 14275 ft | 358 kts | 265° |
| 2026-05-08 12:13 | 50.58844 | 4.12411 | 14935 ft | 361 kts | 265° |
| 2026-05-08 12:13 | 50.58657 | 4.08439 | 15551 ft | 364 kts | 265° |
| 2026-05-08 12:13 | 50.58461 | 4.04321 | 16192 ft | 367 kts | 265° |
| 2026-05-08 12:14 | 50.58268 | 4.00268 | 16804 ft | 370 kts | 265° |
| 2026-05-08 12:14 | 50.58075 | 3.96255 | 17411 ft | 372 kts | 264° |
| 2026-05-08 12:14 | 50.57803 | 3.92169 | 17967 ft | 374 kts | 259° |
| 2026-05-08 12:14 | 50.57064 | 3.88257 | 18527 ft | 376 kts | 245° |
| 2026-05-08 12:15 | 50.55712 | 3.84752 | 19090 ft | 377 kts | 231° |
| 2026-05-08 12:15 | 50.53914 | 3.81732 | 19630 ft | 379 kts | 221° |
| 2026-05-08 12:15 | 50.51769 | 3.79253 | 20134 ft | 383 kts | 211° |
| 2026-05-08 12:15 | 50.49440 | 3.77340 | 20639 ft | 386 kts | 205° |
| 2026-05-08 12:16 | 50.46943 | 3.75635 | 21156 ft | 389 kts | 203° |
| 2026-05-08 12:16 | 50.44423 | 3.74033 | 21632 ft | 392 kts | 202° |
| 2026-05-08 12:16 | 50.41887 | 3.72439 | 22139 ft | 395 kts | 202° |
| 2026-05-08 12:16 | 50.39343 | 3.70819 | 22609 ft | 397 kts | 203° |
| 2026-05-08 12:17 | 50.36782 | 3.69155 | 23087 ft | 400 kts | 203° |
| 2026-05-08 12:17 | 50.34252 | 3.67488 | 23549 ft | 402 kts | 204° |
| 2026-05-08 12:17 | 50.31652 | 3.65757 | 24080 ft | 403 kts | 204° |
| 2026-05-08 12:17 | 50.29077 | 3.64032 | 24458 ft | 407 kts | 204° |
| 2026-05-08 12:18 | 50.26494 | 3.62296 | 24935 ft | 408 kts | 204° |
| 2026-05-08 12:18 | 50.23881 | 3.60538 | 25342 ft | 411 kts | 204° |
| 2026-05-08 12:18 | 50.21265 | 3.58778 | 25750 ft | 413 kts | 204° |
| 2026-05-08 12:18 | 50.18604 | 3.56990 | 26158 ft | 415 kts | 204° |
| 2026-05-08 12:19 | 50.15932 | 3.55196 | 26529 ft | 418 kts | 204° |
| 2026-05-08 12:19 | 50.13271 | 3.53411 | 26930 ft | 419 kts | 204° |
| 2026-05-08 12:19 | 50.10563 | 3.51598 | 27267 ft | 422 kts | 204° |
| 2026-05-08 12:19 | 50.07884 | 3.49805 | 27701 ft | 422 kts | 204° |
| 2026-05-08 12:20 | 50.05180 | 3.47998 | 28283 ft | 419 kts | 204° |
| 2026-05-08 12:20 | 50.02543 | 3.46238 | 28749 ft | 417 kts | 204° |
| 2026-05-08 12:20 | 49.99876 | 3.44459 | 29175 ft | 417 kts | 204° |
| 2026-05-08 12:20 | 49.97220 | 3.42690 | 29578 ft | 416 kts | 204° |
| 2026-05-08 12:21 | 49.94548 | 3.40913 | 30019 ft | 414 kts | 204° |
| 2026-05-08 12:21 | 49.91926 | 3.39171 | 30416 ft | 414 kts | 204° |
| 2026-05-08 12:21 | 49.89282 | 3.37416 | 30812 ft | 412 kts | 204° |
| 2026-05-08 12:21 | 49.86646 | 3.35670 | 31037 ft | 413 kts | 204° |
| 2026-05-08 12:22 | 49.81366 | 3.32177 | 31046 ft | 411 kts | 204° |
| 2026-05-08 12:22 | 49.76108 | 3.28703 | 31047 ft | 411 kts | 204° |
| 2026-05-08 12:23 | 49.70857 | 3.25242 | 31038 ft | 411 kts | 204° |
| 2026-05-08 12:23 | 49.65618 | 3.21798 | 31045 ft | 411 kts | 204° |
| 2026-05-08 12:24 | 49.60377 | 3.18360 | 31029 ft | 411 kts | 205° |
| 2026-05-08 12:24 | 49.55126 | 3.14922 | 31032 ft | 412 kts | 205° |
| 2026-05-08 12:25 | 49.50126 | 3.10749 | 31026 ft | 410 kts | 219° |
| 2026-05-08 12:25 | 49.46003 | 3.04558 | 31146 ft | 419 kts | 233° |
| 2026-05-08 12:26 | 49.44310 | 3.00915 | 31324 ft | 420 kts | 239° |
| 2026-05-08 12:26 | 49.42842 | 2.97023 | 31555 ft | 421 kts | 243° |
| 2026-05-08 12:26 | 49.41497 | 2.93078 | 31912 ft | 418 kts | 244° |
| 2026-05-08 12:26 | 49.40180 | 2.89147 | 32289 ft | 415 kts | 244° |
| 2026-05-08 12:27 | 49.38860 | 2.85259 | 32662 ft | 412 kts | 244° |
| 2026-05-08 12:27 | 49.37521 | 2.81394 | 32833 ft | 414 kts | 244° |
| 2026-05-08 12:27 | 49.36145 | 2.77515 | 33006 ft | 416 kts | 243° |
| 2026-05-08 12:27 | 49.34725 | 2.73588 | 33033 ft | 420 kts | 243° |
| 2026-05-08 12:28 | 49.31910 | 2.65693 | 33025 ft | 427 kts | 245° |
| 2026-05-08 12:28 | 49.29131 | 2.57706 | 33017 ft | 425 kts | 245° |
| 2026-05-08 12:29 | 49.26362 | 2.49773 | 33030 ft | 425 kts | 245° |
| 2026-05-08 12:29 | 49.23563 | 2.41813 | 33030 ft | 426 kts | 245° |
| 2026-05-08 12:30 | 49.20747 | 2.33870 | 33026 ft | 424 kts | 245° |
| 2026-05-08 12:30 | 49.17911 | 2.25979 | 33029 ft | 426 kts | 245° |
| 2026-05-08 12:31 | 49.15007 | 2.18105 | 33029 ft | 426 kts | 244° |
| 2026-05-08 12:31 | 49.12076 | 2.10229 | 33026 ft | 427 kts | 245° |
| 2026-05-08 12:32 | 49.09177 | 2.02368 | 33028 ft | 424 kts | 247° |
| 2026-05-08 12:32 | 49.06625 | 1.94299 | 33033 ft | 422 kts | 250° |
| 2026-05-08 12:33 | 49.04250 | 1.86191 | 33025 ft | 423 kts | 251° |
| 2026-05-08 12:33 | 49.01851 | 1.78029 | 33019 ft | 421 kts | 251° |
| 2026-05-08 12:34 | 48.99422 | 1.69904 | 33017 ft | 421 kts | 251° |
| 2026-05-08 12:34 | 48.96984 | 1.61833 | 33018 ft | 422 kts | 251° |
| 2026-05-08 12:35 | 48.94527 | 1.53767 | 33020 ft | 420 kts | 251° |
| 2026-05-08 12:35 | 48.92068 | 1.45725 | 33010 ft | 419 kts | 251° |
| 2026-05-08 12:36 | 48.89595 | 1.37664 | 33018 ft | 421 kts | 251° |
| 2026-05-08 12:36 | 48.87122 | 1.29638 | 33020 ft | 420 kts | 250° |
| 2026-05-08 12:37 | 48.84649 | 1.21631 | 33016 ft | 419 kts | 250° |
| 2026-05-08 12:37 | 48.82174 | 1.13649 | 33016 ft | 421 kts | 250° |
| 2026-05-08 12:38 | 48.79682 | 1.05630 | 33007 ft | 421 kts | 250° |
| 2026-05-08 12:38 | 48.77194 | 0.97656 | 33007 ft | 420 kts | 250° |
| 2026-05-08 12:39 | 48.74707 | 0.89706 | 33007 ft | 421 kts | 250° |
| 2026-05-08 12:39 | 48.71850 | 0.81894 | 33007 ft | 425 kts | 244° |
| 2026-05-08 12:40 | 48.68702 | 0.74291 | 33008 ft | 424 kts | 243° |
| 2026-05-08 12:40 | 48.65551 | 0.66738 | 33006 ft | 425 kts | 244° |
| 2026-05-08 12:41 | 48.62433 | 0.59198 | 33003 ft | 424 kts | 243° |
| 2026-05-08 12:41 | 48.59346 | 0.51687 | 33006 ft | 425 kts | 244° |
| 2026-05-08 12:42 | 48.56239 | 0.44106 | 33006 ft | 424 kts | 243° |
| 2026-05-08 12:42 | 48.53136 | 0.36555 | 33004 ft | 422 kts | 243° |
| 2026-05-08 12:43 | 48.50032 | 0.29016 | 33001 ft | 425 kts | 243° |
| 2026-05-08 12:43 | 48.46937 | 0.21510 | 33003 ft | 424 kts | 242° |
| 2026-05-08 12:44 | 48.43796 | 0.13922 | 32999 ft | 425 kts | 242° |
| 2026-05-08 12:44 | 48.40677 | 0.06416 | 32998 ft | 424 kts | 242° |
| 2026-05-08 12:45 | 48.37562 | -0.01064 | 32993 ft | 425 kts | 242° |
| 2026-05-08 12:45 | 48.34319 | -0.08536 | 32989 ft | 427 kts | 238° |
| 2026-05-08 12:46 | 48.30784 | -0.15670 | 32992 ft | 428 kts | 237° |
| 2026-05-08 12:46 | 48.27175 | -0.22751 | 32984 ft | 426 kts | 237° |
| 2026-05-08 12:47 | 48.23581 | -0.29802 | 32988 ft | 427 kts | 236° |
| 2026-05-08 12:47 | 48.19984 | -0.36794 | 32986 ft | 425 kts | 236° |
| 2026-05-08 12:48 | 48.16375 | -0.43801 | 32977 ft | 426 kts | 236° |
| 2026-05-08 12:48 | 48.12761 | -0.50827 | 32975 ft | 426 kts | 236° |
| 2026-05-08 12:49 | 48.09165 | -0.57812 | 32977 ft | 425 kts | 236° |
| 2026-05-08 12:49 | 48.05547 | -0.64829 | 32977 ft | 425 kts | 236° |
| 2026-05-08 12:50 | 48.01960 | -0.71768 | 32976 ft | 424 kts | 235° |
| 2026-05-08 12:50 | 47.98355 | -0.78729 | 32976 ft | 425 kts | 235° |
| 2026-05-08 12:51 | 47.92916 | -0.89191 | 32973 ft | 425 kts | 235° |
| 2026-05-08 12:52 | 47.89299 | -0.96126 | 32969 ft | 427 kts | 234° |
| 2026-05-08 12:52 | 47.83830 | -1.06579 | 32965 ft | 426 kts | 234° |
| 2026-05-08 12:53 | 47.80183 | -1.13526 | 32965 ft | 426 kts | 234° |
| 2026-05-08 12:53 | 47.76544 | -1.20440 | 32960 ft | 426 kts | 234° |
| 2026-05-08 12:54 | 47.72910 | -1.27330 | 32957 ft | 426 kts | 234° |
| 2026-05-08 12:54 | 47.69242 | -1.34267 | 32958 ft | 426 kts | 234° |
| 2026-05-08 12:55 | 47.65580 | -1.41175 | 32955 ft | 428 kts | 233° |
| 2026-05-08 12:55 | 47.61923 | -1.48053 | 32951 ft | 427 kts | 233° |
| 2026-05-08 12:56 | 47.58222 | -1.54867 | 32941 ft | 427 kts | 231° |
| 2026-05-08 12:56 | 47.54259 | -1.61450 | 32939 ft | 428 kts | 229° |
| 2026-05-08 12:57 | 47.50242 | -1.67919 | 32946 ft | 427 kts | 228° |
| 2026-05-08 12:57 | 47.46244 | -1.74381 | 32942 ft | 427 kts | 228° |
| 2026-05-08 12:58 | 47.42224 | -1.80913 | 32947 ft | 428 kts | 228° |
| 2026-05-08 12:58 | 47.38235 | -1.87391 | 32941 ft | 428 kts | 227° |
| 2026-05-08 12:59 | 47.33909 | -1.93469 | 32943 ft | 430 kts | 219° |
| 2026-05-08 12:59 | 47.28995 | -1.98411 | 32934 ft | 431 kts | 213° |
| 2026-05-08 13:00 | 47.23790 | -2.03019 | 32935 ft | 431 kts | 212° |
| 2026-05-08 13:00 | 47.18617 | -2.07527 | 32927 ft | 431 kts | 212° |
| 2026-05-08 13:01 | 47.13500 | -2.12017 | 32932 ft | 429 kts | 212° |
| 2026-05-08 13:01 | 47.08374 | -2.16541 | 32927 ft | 429 kts | 212° |
| 2026-05-08 13:02 | 47.03281 | -2.21045 | 32927 ft | 429 kts | 212° |
| 2026-05-08 13:02 | 46.98166 | -2.25565 | 32924 ft | 429 kts | 212° |
| 2026-05-08 13:03 | 46.93065 | -2.30064 | 32924 ft | 430 kts | 212° |
| 2026-05-08 13:03 | 46.88012 | -2.34511 | 32923 ft | 429 kts | 212° |
| 2026-05-08 13:04 | 46.82835 | -2.39059 | 32924 ft | 429 kts | 212° |
| 2026-05-08 13:04 | 46.77697 | -2.43568 | 32921 ft | 428 kts | 211° |
| 2026-05-08 13:05 | 46.72585 | -2.48045 | 32919 ft | 428 kts | 211° |
| 2026-05-08 13:05 | 46.67474 | -2.52510 | 32919 ft | 427 kts | 211° |
| 2026-05-08 13:06 | 46.62378 | -2.56952 | 32917 ft | 428 kts | 211° |
| 2026-05-08 13:06 | 46.57283 | -2.61384 | 32910 ft | 428 kts | 211° |
| 2026-05-08 13:07 | 46.52187 | -2.65806 | 32910 ft | 428 kts | 210° |
| 2026-05-08 13:07 | 46.47083 | -2.70227 | 32907 ft | 427 kts | 210° |
| 2026-05-08 13:08 | 46.41951 | -2.74662 | 32903 ft | 427 kts | 210° |
| 2026-05-08 13:08 | 46.36739 | -2.79155 | 32902 ft | 428 kts | 210° |
| 2026-05-08 13:09 | 46.31596 | -2.83578 | 32897 ft | 428 kts | 210° |
| 2026-05-08 13:09 | 46.26457 | -2.87989 | 32901 ft | 429 kts | 210° |
| 2026-05-08 13:10 | 46.21242 | -2.92504 | 32910 ft | 428 kts | 210° |
| 2026-05-08 13:10 | 46.18643 | -2.94771 | 33066 ft | 430 kts | 210° |
| 2026-05-08 13:10 | 46.16076 | -2.97011 | 33600 ft | 425 kts | 210° |
| 2026-05-08 13:11 | 46.13496 | -2.99260 | 34053 ft | 422 kts | 210° |
| 2026-05-08 13:11 | 46.10933 | -3.01492 | 34350 ft | 422 kts | 210° |
| 2026-05-08 13:11 | 46.08347 | -3.03739 | 34600 ft | 422 kts | 210° |
| 2026-05-08 13:11 | 46.05772 | -3.05972 | 34864 ft | 421 kts | 210° |
| 2026-05-08 13:12 | 46.00532 | -3.10507 | 34907 ft | 422 kts | 209° |
| 2026-05-08 13:12 | 45.95478 | -3.14870 | 34901 ft | 421 kts | 209° |
| 2026-05-08 13:13 | 45.90436 | -3.19210 | 34900 ft | 422 kts | 209° |
| 2026-05-08 13:13 | 45.84969 | -3.23905 | 34901 ft | 423 kts | 209° |
| 2026-05-08 13:14 | 45.79431 | -3.28652 | 34891 ft | 421 kts | 209° |
| 2026-05-08 13:14 | 45.73823 | -3.33449 | 34889 ft | 423 kts | 209° |
| 2026-05-08 13:15 | 45.68425 | -3.38055 | 34882 ft | 423 kts | 209° |
| 2026-05-08 13:15 | 45.63022 | -3.42653 | 34877 ft | 421 kts | 209° |
| 2026-05-08 13:16 | 45.57671 | -3.47198 | 34874 ft | 421 kts | 208° |
| 2026-05-08 13:16 | 45.52357 | -3.51701 | 34866 ft | 421 kts | 208° |
| 2026-05-08 13:17 | 45.46958 | -3.56263 | 34870 ft | 422 kts | 208° |
| 2026-05-08 13:17 | 45.41477 | -3.60886 | 34864 ft | 422 kts | 208° |
| 2026-05-08 13:18 | 45.36121 | -3.65394 | 34861 ft | 423 kts | 207° |
| 2026-05-08 13:18 | 45.30566 | -3.70059 | 34871 ft | 422 kts | 207° |
| 2026-05-08 13:19 | 45.25070 | -3.74662 | 34872 ft | 421 kts | 207° |
| 2026-05-08 13:19 | 45.19744 | -3.79112 | 34869 ft | 422 kts | 207° |
| 2026-05-08 13:20 | 45.14299 | -3.83650 | 34860 ft | 429 kts | 207° |
| 2026-05-08 13:20 | 45.08823 | -3.88203 | 34852 ft | 429 kts | 206° |
| 2026-05-08 13:21 | 45.03249 | -3.92829 | 34850 ft | 430 kts | 207° |
| 2026-05-08 13:21 | 44.97530 | -3.97565 | 34842 ft | 433 kts | 206° |
| 2026-05-08 13:22 | 44.91720 | -4.02369 | 34840 ft | 432 kts | 207° |
| 2026-05-08 13:22 | 44.86293 | -4.06847 | 34839 ft | 431 kts | 206° |
| 2026-05-08 13:23 | 44.80643 | -4.11498 | 34841 ft | 431 kts | 206° |
| 2026-05-08 13:23 | 44.74931 | -4.16189 | 34843 ft | 430 kts | 206° |
| 2026-05-08 13:24 | 44.69143 | -4.20926 | 34845 ft | 430 kts | 206° |
| 2026-05-08 13:24 | 44.63397 | -4.25615 | 34848 ft | 430 kts | 206° |
| 2026-05-08 13:25 | 44.57705 | -4.30250 | 34848 ft | 430 kts | 206° |
| 2026-05-08 13:25 | 44.52129 | -4.34783 | 34850 ft | 429 kts | 206° |
| 2026-05-08 13:26 | 44.46433 | -4.39408 | 34852 ft | 429 kts | 206° |
| 2026-05-08 13:26 | 44.40919 | -4.43872 | 34843 ft | 429 kts | 206° |
| 2026-05-08 13:27 | 44.35572 | -4.48326 | 34841 ft | 431 kts | 207° |
| 2026-05-08 13:27 | 44.30216 | -4.52888 | 34840 ft | 430 kts | 207° |
| 2026-05-08 13:28 | 44.24959 | -4.57362 | 34844 ft | 431 kts | 207° |
| 2026-05-08 13:28 | 44.19672 | -4.61839 | 34842 ft | 429 kts | 207° |
| 2026-05-08 13:29 | 44.14430 | -4.66257 | 34844 ft | 428 kts | 206° |
| 2026-05-08 13:29 | 44.09025 | -4.70797 | 34851 ft | 429 kts | 206° |
| 2026-05-08 13:30 | 44.03728 | -4.75238 | 34857 ft | 429 kts | 206° |
| 2026-05-08 13:30 | 43.98430 | -4.79665 | 34850 ft | 429 kts | 206° |
| 2026-05-08 13:31 | 43.93166 | -4.84052 | 34855 ft | 429 kts | 206° |
| 2026-05-08 13:31 | 43.87895 | -4.88439 | 34865 ft | 429 kts | 206° |
| 2026-05-08 13:32 | 43.82586 | -4.92847 | 34856 ft | 427 kts | 207° |
| 2026-05-08 13:32 | 43.77342 | -4.97197 | 34864 ft | 428 kts | 207° |
| 2026-05-08 13:33 | 43.72166 | -5.01481 | 34871 ft | 426 kts | 207° |
| 2026-05-08 13:33 | 43.66988 | -5.05756 | 34868 ft | 426 kts | 207° |
| 2026-05-08 13:34 | 43.61864 | -5.09976 | 34870 ft | 424 kts | 207° |
| 2026-05-08 13:34 | 43.56718 | -5.14204 | 34870 ft | 427 kts | 207° |
| 2026-05-08 13:35 | 43.51599 | -5.18401 | 34881 ft | 426 kts | 207° |
| 2026-05-08 13:35 | 43.46501 | -5.22574 | 34872 ft | 425 kts | 208° |
| 2026-05-08 13:36 | 43.41422 | -5.26721 | 34881 ft | 426 kts | 207° |
| 2026-05-08 13:36 | 43.36282 | -5.30911 | 34892 ft | 424 kts | 207° |
| 2026-05-08 13:37 | 43.31169 | -5.35070 | 34893 ft | 424 kts | 208° |
| 2026-05-08 13:37 | 43.26025 | -5.39251 | 34889 ft | 423 kts | 208° |
| 2026-05-08 13:38 | 43.20936 | -5.43379 | 34888 ft | 423 kts | 208° |
| 2026-05-08 13:38 | 43.15845 | -5.47498 | 34878 ft | 424 kts | 208° |
| 2026-05-08 13:39 | 43.10619 | -5.51718 | 34903 ft | 423 kts | 208° |
| 2026-05-08 13:39 | 43.05337 | -5.55975 | 34872 ft | 424 kts | 208° |
| 2026-05-08 13:40 | 43.00133 | -5.60160 | 34866 ft | 424 kts | 208° |
| 2026-05-08 13:40 | 42.94917 | -5.64347 | 34870 ft | 425 kts | 209° |
| 2026-05-08 13:41 | 42.89572 | -5.68630 | 34877 ft | 422 kts | 208° |
| 2026-05-08 13:41 | 42.84342 | -5.72811 | 34884 ft | 421 kts | 208° |
| 2026-05-08 13:42 | 42.79137 | -5.76965 | 34883 ft | 421 kts | 208° |
| 2026-05-08 13:42 | 42.73965 | -5.81083 | 34883 ft | 421 kts | 208° |
| 2026-05-08 13:43 | 42.68768 | -5.85213 | 34886 ft | 420 kts | 209° |
| 2026-05-08 13:43 | 42.63618 | -5.89299 | 34883 ft | 420 kts | 209° |
| 2026-05-08 13:44 | 42.58467 | -5.93378 | 34886 ft | 419 kts | 209° |
| 2026-05-08 13:44 | 42.53355 | -5.97419 | 34886 ft | 418 kts | 209° |
| 2026-05-08 13:45 | 42.48298 | -6.01407 | 34885 ft | 416 kts | 209° |
| 2026-05-08 13:45 | 42.43257 | -6.05374 | 34878 ft | 417 kts | 210° |
| 2026-05-08 13:46 | 42.38216 | -6.09335 | 34878 ft | 416 kts | 210° |
| 2026-05-08 13:46 | 42.33155 | -6.13303 | 34876 ft | 417 kts | 210° |
| 2026-05-08 13:47 | 42.28110 | -6.17254 | 34872 ft | 415 kts | 210° |
| 2026-05-08 13:47 | 42.23112 | -6.21158 | 34860 ft | 415 kts | 210° |
| 2026-05-08 13:48 | 42.18118 | -6.25052 | 34857 ft | 412 kts | 211° |
| 2026-05-08 13:48 | 42.13110 | -6.28948 | 34858 ft | 413 kts | 211° |
| 2026-05-08 13:49 | 42.08123 | -6.32822 | 34858 ft | 413 kts | 211° |
| 2026-05-08 13:49 | 42.03116 | -6.36707 | 34853 ft | 414 kts | 211° |
| 2026-05-08 13:50 | 41.98089 | -6.40598 | 34861 ft | 414 kts | 211° |
| 2026-05-08 13:50 | 41.93070 | -6.44478 | 34863 ft | 413 kts | 211° |
| 2026-05-08 13:51 | 41.88048 | -6.48350 | 34865 ft | 412 kts | 211° |
| 2026-05-08 13:51 | 41.82895 | -6.52317 | 34865 ft | 411 kts | 211° |
| 2026-05-08 13:52 | 41.77839 | -6.56201 | 34862 ft | 411 kts | 211° |
| 2026-05-08 13:52 | 41.72800 | -6.60064 | 34867 ft | 410 kts | 211° |
| 2026-05-08 13:53 | 41.67664 | -6.63604 | 34865 ft | 410 kts | 206° |
| 2026-05-08 13:53 | 41.62299 | -6.66440 | 34861 ft | 411 kts | 202° |
| 2026-05-08 13:54 | 41.56864 | -6.69177 | 34864 ft | 409 kts | 203° |
| 2026-05-08 13:54 | 41.51412 | -6.71951 | 34861 ft | 408 kts | 203° |
| 2026-05-08 13:55 | 41.46067 | -6.74705 | 34865 ft | 407 kts | 203° |
| 2026-05-08 13:56 | 41.38025 | -6.78869 | 34871 ft | 406 kts | 204° |
| 2026-05-08 13:56 | 41.32733 | -6.81609 | 34872 ft | 406 kts | 204° |
| 2026-05-08 13:57 | 41.27347 | -6.84394 | 34870 ft | 406 kts | 204° |
| 2026-05-08 13:57 | 41.22062 | -6.87122 | 34860 ft | 405 kts | 204° |
| 2026-05-08 13:58 | 41.16766 | -6.89849 | 34853 ft | 403 kts | 204° |
| 2026-05-08 13:58 | 41.11523 | -6.92544 | 34856 ft | 405 kts | 204° |
| 2026-05-08 13:59 | 41.06226 | -6.95266 | 34852 ft | 403 kts | 204° |
| 2026-05-08 13:59 | 41.01023 | -6.97935 | 34843 ft | 402 kts | 204° |
| 2026-05-08 14:00 | 40.95800 | -7.00606 | 34845 ft | 401 kts | 204° |
| 2026-05-08 14:00 | 40.90592 | -7.03266 | 34848 ft | 402 kts | 204° |
| 2026-05-08 14:01 | 40.85385 | -7.05921 | 34847 ft | 400 kts | 204° |
| 2026-05-08 14:01 | 40.80219 | -7.08550 | 34845 ft | 401 kts | 204° |
| 2026-05-08 14:02 | 40.74989 | -7.11209 | 34851 ft | 400 kts | 204° |
| 2026-05-08 14:02 | 40.69804 | -7.13839 | 34847 ft | 400 kts | 204° |
| 2026-05-08 14:03 | 40.64633 | -7.16458 | 34850 ft | 399 kts | 204° |
| 2026-05-08 14:03 | 40.59354 | -7.19128 | 34853 ft | 399 kts | 204° |
| 2026-05-08 14:04 | 40.54067 | -7.21795 | 34854 ft | 398 kts | 204° |
| 2026-05-08 14:04 | 40.48924 | -7.24389 | 34857 ft | 398 kts | 204° |
| 2026-05-08 14:05 | 40.43771 | -7.26981 | 34857 ft | 396 kts | 204° |
| 2026-05-08 14:05 | 40.38609 | -7.29575 | 34858 ft | 396 kts | 204° |
| 2026-05-08 14:06 | 40.33454 | -7.32157 | 34857 ft | 395 kts | 204° |
| 2026-05-08 14:06 | 40.28346 | -7.34715 | 34860 ft | 395 kts | 204° |
| 2026-05-08 14:07 | 40.23227 | -7.37272 | 34862 ft | 394 kts | 204° |
| 2026-05-08 14:07 | 40.18080 | -7.39842 | 34860 ft | 395 kts | 204° |
| 2026-05-08 14:08 | 40.12950 | -7.42399 | 35163 ft | 390 kts | 204° |
| 2026-05-08 14:08 | 40.10439 | -7.43646 | 35447 ft | 386 kts | 204° |
| 2026-05-08 14:08 | 40.07930 | -7.44894 | 35547 ft | 389 kts | 204° |
| 2026-05-08 14:08 | 40.05413 | -7.46145 | 35724 ft | 388 kts | 204° |
| 2026-05-08 14:09 | 40.02875 | -7.47406 | 35854 ft | 389 kts | 204° |
| 2026-05-08 14:09 | 40.00342 | -7.48664 | 36021 ft | 390 kts | 204° |
| 2026-05-08 14:09 | 39.97829 | -7.49910 | 36201 ft | 390 kts | 204° |
| 2026-05-08 14:09 | 39.95270 | -7.51178 | 36326 ft | 392 kts | 204° |
| 2026-05-08 14:10 | 39.92746 | -7.52428 | 36472 ft | 393 kts | 204° |
| 2026-05-08 14:10 | 39.90202 | -7.53686 | 36656 ft | 392 kts | 204° |
| 2026-05-08 14:10 | 39.87652 | -7.54945 | 36845 ft | 392 kts | 204° |
| 2026-05-08 14:11 | 39.82482 | -7.57496 | 36858 ft | 394 kts | 204° |
| 2026-05-08 14:11 | 39.77352 | -7.60022 | 36855 ft | 390 kts | 204° |
| 2026-05-08 14:12 | 39.72272 | -7.62520 | 36856 ft | 391 kts | 204° |
| 2026-05-08 14:12 | 39.67179 | -7.65021 | 36849 ft | 389 kts | 203° |
| 2026-05-08 14:13 | 39.61890 | -7.67614 | 36850 ft | 390 kts | 204° |
| 2026-05-08 14:13 | 39.56604 | -7.70201 | 36844 ft | 388 kts | 203° |
| 2026-05-08 14:14 | 39.51319 | -7.72784 | 36843 ft | 387 kts | 204° |
| 2026-05-08 14:14 | 39.46211 | -7.75277 | 36843 ft | 388 kts | 204° |
| 2026-05-08 14:15 | 39.41111 | -7.77761 | 36837 ft | 386 kts | 204° |
| 2026-05-08 14:15 | 39.36076 | -7.80211 | 36831 ft | 385 kts | 204° |
| 2026-05-08 14:16 | 39.31024 | -7.82664 | 36835 ft | 386 kts | 204° |
| 2026-05-08 14:16 | 39.25951 | -7.85125 | 36828 ft | 385 kts | 204° |
| 2026-05-08 14:17 | 39.20870 | -7.87584 | 36823 ft | 385 kts | 204° |
| 2026-05-08 14:17 | 39.15786 | -7.90041 | 36816 ft | 384 kts | 204° |
| 2026-05-08 14:18 | 39.10750 | -7.92469 | 36808 ft | 383 kts | 204° |
| 2026-05-08 14:18 | 39.05719 | -7.94892 | 36813 ft | 382 kts | 204° |
| 2026-05-08 14:19 | 39.00677 | -7.97319 | 36806 ft | 382 kts | 204° |
| 2026-05-08 14:19 | 38.95693 | -7.99713 | 36815 ft | 381 kts | 204° |
| 2026-05-08 14:20 | 38.90695 | -8.02111 | 36829 ft | 382 kts | 204° |
| 2026-05-08 14:20 | 38.85701 | -8.04502 | 36837 ft | 379 kts | 204° |
| 2026-05-08 14:21 | 38.80648 | -8.06920 | 36831 ft | 380 kts | 204° |
| 2026-05-08 14:21 | 38.75518 | -8.09372 | 36836 ft | 381 kts | 204° |
| 2026-05-08 14:22 | 38.70505 | -8.11761 | 36839 ft | 379 kts | 204° |
| 2026-05-08 14:22 | 38.65522 | -8.14134 | 36836 ft | 377 kts | 205° |
| 2026-05-08 14:23 | 38.60574 | -8.16488 | 36837 ft | 378 kts | 205° |
| 2026-05-08 14:23 | 38.55629 | -8.18836 | 36828 ft | 377 kts | 204° |
| 2026-05-08 14:24 | 38.50713 | -8.21166 | 36824 ft | 377 kts | 204° |
| 2026-05-08 14:24 | 38.45766 | -8.23506 | 36836 ft | 378 kts | 204° |
| 2026-05-08 14:25 | 38.40847 | -8.25830 | 36832 ft | 375 kts | 204° |
| 2026-05-08 14:25 | 38.35957 | -8.28135 | 36832 ft | 375 kts | 204° |
| 2026-05-08 14:26 | 38.31087 | -8.30430 | 36823 ft | 374 kts | 204° |
| 2026-05-08 14:26 | 38.26196 | -8.32731 | 36826 ft | 375 kts | 204° |
| 2026-05-08 14:27 | 38.21349 | -8.35008 | 36836 ft | 372 kts | 205° |
| 2026-05-08 14:27 | 38.16481 | -8.37297 | 36824 ft | 373 kts | 204° |
| 2026-05-08 14:28 | 38.11606 | -8.39578 | 36820 ft | 372 kts | 205° |
| 2026-05-08 14:28 | 38.06768 | -8.41842 | 36830 ft | 373 kts | 204° |
| 2026-05-08 14:29 | 38.01888 | -8.44122 | 36832 ft | 372 kts | 204° |
| 2026-05-08 14:29 | 37.97066 | -8.46370 | 36824 ft | 369 kts | 205° |
| 2026-05-08 14:30 | 37.92212 | -8.48631 | 36828 ft | 371 kts | 204° |
| 2026-05-08 14:30 | 37.87305 | -8.50913 | 36825 ft | 370 kts | 205° |
| 2026-05-08 14:31 | 37.82288 | -8.53242 | 36825 ft | 369 kts | 205° |
| 2026-05-08 14:31 | 37.77286 | -8.55564 | 36826 ft | 367 kts | 205° |
| 2026-05-08 14:32 | 37.69994 | -8.58939 | 36830 ft | 365 kts | 205° |
| 2026-05-08 14:32 | 37.65109 | -8.61197 | 36831 ft | 368 kts | 205° |
| 2026-05-08 14:33 | 37.60273 | -8.63430 | 36827 ft | 366 kts | 205° |
| 2026-05-08 14:33 | 37.55402 | -8.65680 | 36838 ft | 364 kts | 204° |
| 2026-05-08 14:34 | 37.50347 | -8.68006 | 36831 ft | 365 kts | 205° |
| 2026-05-08 14:34 | 37.45393 | -8.70284 | 36841 ft | 365 kts | 205° |
| 2026-05-08 14:35 | 37.40456 | -8.72546 | 36842 ft | 364 kts | 205° |
| 2026-05-08 14:35 | 37.35617 | -8.74766 | 36840 ft | 364 kts | 205° |
| 2026-05-08 14:36 | 37.30823 | -8.76961 | 36848 ft | 363 kts | 205° |
| 2026-05-08 14:36 | 37.25943 | -8.79190 | 36842 ft | 363 kts | 205° |
| 2026-05-08 14:37 | 37.21137 | -8.81384 | 36842 ft | 364 kts | 204° |
| 2026-05-08 14:37 | 37.16275 | -8.83600 | 36845 ft | 362 kts | 205° |
| 2026-05-08 14:38 | 37.11450 | -8.85795 | 36840 ft | 362 kts | 205° |
| 2026-05-08 14:38 | 37.06559 | -8.88017 | 36840 ft | 360 kts | 205° |
| 2026-05-08 14:39 | 37.01726 | -8.90214 | 36839 ft | 361 kts | 204° |
| 2026-05-08 14:39 | 36.96818 | -8.92441 | 36824 ft | 363 kts | 205° |
| 2026-05-08 14:40 | 36.91965 | -8.94635 | 36831 ft | 359 kts | 205° |
| 2026-05-08 14:40 | 36.86914 | -8.96917 | 36822 ft | 358 kts | 205° |
| 2026-05-08 14:41 | 36.81862 | -8.99201 | 36832 ft | 361 kts | 205° |
| 2026-05-08 14:41 | 36.76746 | -9.01508 | 36827 ft | 358 kts | 205° |
| 2026-05-08 14:42 | 36.71817 | -9.03725 | 36833 ft | 358 kts | 205° |
| 2026-05-08 14:42 | 36.66927 | -9.05923 | 36828 ft | 355 kts | 205° |
| 2026-05-08 14:43 | 36.62019 | -9.08126 | 36839 ft | 356 kts | 205° |
| 2026-05-08 14:43 | 36.57133 | -9.10317 | 36849 ft | 356 kts | 205° |
| 2026-05-08 14:44 | 36.52257 | -9.12501 | 36851 ft | 356 kts | 205° |
| 2026-05-08 14:44 | 36.47249 | -9.14738 | 36838 ft | 353 kts | 206° |
| 2026-05-08 14:45 | 36.42298 | -9.16950 | 36839 ft | 353 kts | 205° |
| 2026-05-08 14:45 | 36.37341 | -9.19164 | 36839 ft | 351 kts | 205° |
| 2026-05-08 14:46 | 36.32388 | -9.21369 | 36832 ft | 352 kts | 206° |
| 2026-05-08 14:46 | 36.27337 | -9.23621 | 36839 ft | 353 kts | 205° |
| 2026-05-08 14:47 | 36.22289 | -9.25860 | 36840 ft | 352 kts | 205° |
| 2026-05-08 14:47 | 36.17233 | -9.28099 | 36840 ft | 352 kts | 206° |
| 2026-05-08 14:48 | 36.12162 | -9.30347 | 36838 ft | 352 kts | 206° |
| 2026-05-08 14:48 | 36.07165 | -9.32553 | 36836 ft | 349 kts | 206° |
| 2026-05-08 14:49 | 36.02208 | -9.34745 | 36831 ft | 350 kts | 206° |
| 2026-05-08 14:49 | 35.97220 | -9.36950 | 36833 ft | 350 kts | 206° |
| 2026-05-08 14:50 | 35.92414 | -9.39537 | 36830 ft | 344 kts | 210° |
| 2026-05-08 14:50 | 35.87743 | -9.42374 | 36836 ft | 348 kts | 211° |
| 2026-05-08 14:51 | 35.82902 | -9.45273 | 36823 ft | 344 kts | 211° |
| 2026-05-08 14:51 | 35.78081 | -9.48114 | 36838 ft | 345 kts | 211° |
| 2026-05-08 14:52 | 35.71014 | -9.52266 | 36836 ft | 343 kts | 211° |
| 2026-05-08 14:53 | 35.66334 | -9.55007 | 36840 ft | 345 kts | 211° |
| 2026-05-08 14:53 | 35.61615 | -9.57764 | 36846 ft | 345 kts | 211° |
| 2026-05-08 14:54 | 35.56899 | -9.60517 | 36849 ft | 343 kts | 211° |
| 2026-05-08 14:54 | 35.52194 | -9.63257 | 36836 ft | 344 kts | 211° |
| 2026-05-08 14:55 | 35.47393 | -9.66055 | 36843 ft | 345 kts | 210° |
| 2026-05-08 14:55 | 35.42661 | -9.68806 | 36837 ft | 344 kts | 210° |
| 2026-05-08 14:56 | 35.37990 | -9.71522 | 36833 ft | 343 kts | 210° |
| 2026-05-08 14:56 | 35.33424 | -9.74172 | 36816 ft | 344 kts | 210° |
| 2026-05-08 14:57 | 35.29008 | -9.76729 | 36829 ft | 343 kts | 210° |
| 2026-05-08 14:57 | 35.24479 | -9.79348 | 36819 ft | 342 kts | 210° |
| 2026-05-08 14:58 | 35.19851 | -9.82027 | 36835 ft | 344 kts | 210° |
| 2026-05-08 14:58 | 35.15237 | -9.84692 | 36837 ft | 342 kts | 211° |
| 2026-05-08 14:59 | 35.10603 | -9.87362 | 36841 ft | 341 kts | 211° |
| 2026-05-08 14:59 | 35.03638 | -9.91367 | 36840 ft | 341 kts | 211° |
| 2026-05-08 15:00 | 34.99024 | -9.94019 | 36846 ft | 340 kts | 210° |
| 2026-05-08 15:00 | 34.94377 | -9.96685 | 36846 ft | 340 kts | 210° |
| 2026-05-08 15:01 | 34.89767 | -9.99329 | 36846 ft | 339 kts | 211° |
| 2026-05-08 15:01 | 34.84971 | -10.02079 | 36842 ft | 342 kts | 210° |
| 2026-05-08 15:02 | 34.80186 | -10.04812 | 36841 ft | 341 kts | 211° |
| 2026-05-08 15:02 | 34.75402 | -10.07542 | 36845 ft | 340 kts | 211° |
| 2026-05-08 15:03 | 34.70763 | -10.10191 | 36846 ft | 339 kts | 211° |
| 2026-05-08 15:03 | 34.66177 | -10.12802 | 36845 ft | 340 kts | 211° |
| 2026-05-08 15:04 | 34.61483 | -10.15473 | 36849 ft | 341 kts | 211° |
| 2026-05-08 15:04 | 34.56805 | -10.18130 | 36848 ft | 340 kts | 210° |
| 2026-05-08 15:05 | 34.52155 | -10.20769 | 36849 ft | 341 kts | 210° |
| 2026-05-08 15:05 | 34.47460 | -10.23435 | 36850 ft | 341 kts | 211° |
| 2026-05-08 15:06 | 34.42721 | -10.26117 | 36850 ft | 342 kts | 210° |
| 2026-05-08 15:06 | 34.38012 | -10.28776 | 36851 ft | 341 kts | 211° |
| 2026-05-08 15:07 | 34.33241 | -10.31469 | 36847 ft | 343 kts | 211° |
| 2026-05-08 15:07 | 34.28461 | -10.34167 | 36848 ft | 344 kts | 210° |
| 2026-05-08 15:08 | 34.24475 | -10.36409 | 36849 ft | 343 kts | 211° |
| 2026-05-08 15:08 | 34.18907 | -10.39540 | 36853 ft | 344 kts | 211° |
| 2026-05-08 15:09 | 34.14169 | -10.42201 | 36856 ft | 342 kts | 211° |
| 2026-05-08 15:09 | 34.09361 | -10.44899 | 36852 ft | 344 kts | 211° |
| 2026-05-08 15:10 | 34.04520 | -10.47614 | 36855 ft | 345 kts | 211° |
| 2026-05-08 15:10 | 33.99685 | -10.50319 | 36853 ft | 344 kts | 211° |
| 2026-05-08 15:11 | 33.94830 | -10.53033 | 36855 ft | 347 kts | 211° |
| 2026-05-08 15:11 | 33.89969 | -10.55747 | 36844 ft | 345 kts | 211° |
| 2026-05-08 15:12 | 33.84951 | -10.58544 | 36834 ft | 345 kts | 211° |
| 2026-05-08 15:12 | 33.79918 | -10.61346 | 36841 ft | 345 kts | 211° |
| 2026-05-08 15:13 | 33.74921 | -10.64125 | 36849 ft | 346 kts | 211° |
| 2026-05-08 15:13 | 33.69912 | -10.66907 | 36853 ft | 347 kts | 211° |
| 2026-05-08 15:14 | 33.64923 | -10.69676 | 36855 ft | 348 kts | 211° |
| 2026-05-08 15:14 | 33.59908 | -10.72451 | 36854 ft | 347 kts | 211° |
| 2026-05-08 15:15 | 33.55021 | -10.75154 | 36855 ft | 348 kts | 211° |
| 2026-05-08 15:15 | 33.50087 | -10.77883 | 36856 ft | 348 kts | 211° |
| 2026-05-08 15:16 | 33.45056 | -10.80661 | 36865 ft | 349 kts | 211° |
| 2026-05-08 15:16 | 33.40024 | -10.83430 | 36857 ft | 348 kts | 211° |
| 2026-05-08 15:17 | 33.34972 | -10.86211 | 36855 ft | 348 kts | 211° |
| 2026-05-08 15:17 | 33.29967 | -10.88964 | 36859 ft | 350 kts | 211° |
| 2026-05-08 15:18 | 33.24948 | -10.91722 | 36858 ft | 350 kts | 211° |
| 2026-05-08 15:18 | 33.19957 | -10.94454 | 36860 ft | 349 kts | 211° |
| 2026-05-08 15:19 | 33.14964 | -10.97192 | 36863 ft | 350 kts | 211° |
| 2026-05-08 15:19 | 33.09920 | -10.99947 | 36863 ft | 350 kts | 212° |
| 2026-05-08 15:20 | 33.04948 | -11.02665 | 36861 ft | 352 kts | 211° |
| 2026-05-08 15:20 | 33.00006 | -11.05360 | 36864 ft | 351 kts | 212° |
| 2026-05-08 15:21 | 32.95081 | -11.08043 | 36871 ft | 351 kts | 211° |
| 2026-05-08 15:21 | 32.90153 | -11.10724 | 36875 ft | 351 kts | 212° |
| 2026-05-08 15:22 | 32.85129 | -11.13456 | 36873 ft | 354 kts | 211° |
| 2026-05-08 15:22 | 32.80172 | -11.16145 | 36865 ft | 353 kts | 212° |
| 2026-05-08 15:23 | 32.75241 | -11.18821 | 36858 ft | 353 kts | 211° |
| 2026-05-08 15:23 | 32.70369 | -11.21459 | 36860 ft | 355 kts | 212° |
| 2026-05-08 15:24 | 32.65466 | -11.24115 | 36865 ft | 355 kts | 211° |
| 2026-05-08 15:24 | 32.60508 | -11.26791 | 36871 ft | 356 kts | 211° |
| 2026-05-08 15:25 | 32.55535 | -11.29471 | 36864 ft | 357 kts | 211° |
| 2026-05-08 15:25 | 32.53104 | -11.30782 | 37093 ft | 356 kts | 212° |
| 2026-05-08 15:25 | 32.50628 | -11.32117 | 36889 ft | 359 kts | 212° |
| 2026-05-08 15:26 | 32.45719 | -11.34752 | 36883 ft | 354 kts | 211° |
| 2026-05-08 15:26 | 32.40773 | -11.37419 | 36885 ft | 356 kts | 211° |
| 2026-05-08 15:27 | 32.35769 | -11.40108 | 36878 ft | 356 kts | 212° |
| 2026-05-08 15:27 | 32.30645 | -11.42853 | 36884 ft | 356 kts | 212° |
| 2026-05-08 15:28 | 32.25483 | -11.45619 | 36883 ft | 359 kts | 212° |
| 2026-05-08 15:28 | 32.20297 | -11.48395 | 36878 ft | 357 kts | 212° |
| 2026-05-08 15:29 | 32.15071 | -11.51188 | 36881 ft | 359 kts | 212° |
| 2026-05-08 15:29 | 32.09826 | -11.53988 | 36880 ft | 359 kts | 212° |
| 2026-05-08 15:30 | 32.04623 | -11.56760 | 36880 ft | 360 kts | 212° |
| 2026-05-08 15:30 | 31.99510 | -11.59481 | 36884 ft | 361 kts | 212° |
| 2026-05-08 15:31 | 31.94344 | -11.62225 | 36881 ft | 359 kts | 212° |
| 2026-05-08 15:31 | 31.89396 | -11.64848 | 36886 ft | 360 kts | 212° |
| 2026-05-08 15:32 | 31.84463 | -11.67468 | 36890 ft | 363 kts | 212° |
| 2026-05-08 15:32 | 31.79500 | -11.70097 | 36892 ft | 361 kts | 212° |
| 2026-05-08 15:33 | 31.74288 | -11.72852 | 36896 ft | 361 kts | 212° |
| 2026-05-08 15:33 | 31.69264 | -11.75505 | 36892 ft | 362 kts | 212° |
| 2026-05-08 15:34 | 31.64494 | -11.78024 | 36880 ft | 362 kts | 212° |
| 2026-05-08 15:34 | 31.59703 | -11.80550 | 36897 ft | 363 kts | 212° |
| 2026-05-08 15:35 | 31.54781 | -11.83142 | 36895 ft | 363 kts | 212° |
| 2026-05-08 15:35 | 31.49949 | -11.85683 | 36900 ft | 366 kts | 212° |
| 2026-05-08 15:36 | 31.45911 | -11.87803 | 36894 ft | 364 kts | 212° |
| 2026-05-08 15:36 | 31.40243 | -11.90778 | 36894 ft | 365 kts | 212° |
| 2026-05-08 15:37 | 31.35537 | -11.93246 | 36894 ft | 366 kts | 212° |
| 2026-05-08 15:37 | 31.30765 | -11.95744 | 36900 ft | 365 kts | 212° |
| 2026-05-08 15:38 | 31.25866 | -11.98306 | 36895 ft | 365 kts | 212° |
| 2026-05-08 15:38 | 31.21026 | -12.00835 | 36898 ft | 368 kts | 212° |
| 2026-05-08 15:39 | 31.16179 | -12.03365 | 36900 ft | 369 kts | 212° |
| 2026-05-08 15:39 | 31.11373 | -12.05870 | 36903 ft | 368 kts | 212° |
| 2026-05-08 15:40 | 31.06531 | -12.08390 | 36898 ft | 367 kts | 212° |
| 2026-05-08 15:40 | 31.01565 | -12.10973 | 36905 ft | 371 kts | 212° |
| 2026-05-08 15:41 | 30.96686 | -12.13507 | 36904 ft | 371 kts | 212° |
| 2026-05-08 15:41 | 30.91748 | -12.16065 | 36905 ft | 369 kts | 212° |
| 2026-05-08 15:42 | 30.86903 | -12.18575 | 36904 ft | 369 kts | 212° |
| 2026-05-08 15:42 | 30.81980 | -12.21127 | 36907 ft | 370 kts | 213° |
| 2026-05-08 15:43 | 30.76976 | -12.23721 | 36911 ft | 376 kts | 212° |
| 2026-05-08 15:43 | 30.71919 | -12.26341 | 36918 ft | 385 kts | 213° |
| 2026-05-08 15:44 | 30.66799 | -12.28986 | 36918 ft | 392 kts | 212° |
| 2026-05-08 15:44 | 30.61604 | -12.31659 | 36921 ft | 393 kts | 212° |
| 2026-05-08 15:45 | 30.56304 | -12.34375 | 36921 ft | 392 kts | 212° |
| 2026-05-08 15:45 | 30.51205 | -12.37154 | 36917 ft | 388 kts | 217° |
| 2026-05-08 15:46 | 30.46398 | -12.40778 | 36917 ft | 384 kts | 223° |
| 2026-05-08 15:46 | 30.41774 | -12.44772 | 36917 ft | 381 kts | 224° |
| 2026-05-08 15:47 | 30.37199 | -12.48761 | 36922 ft | 381 kts | 223° |
| 2026-05-08 15:47 | 30.32565 | -12.52763 | 36926 ft | 384 kts | 223° |
| 2026-05-08 15:48 | 30.25402 | -12.58903 | 36934 ft | 383 kts | 223° |
| 2026-05-08 15:49 | 30.20627 | -12.62982 | 36937 ft | 383 kts | 223° |
| 2026-05-08 15:49 | 30.15801 | -12.67102 | 36937 ft | 384 kts | 223° |
| 2026-05-08 15:50 | 30.10880 | -12.71282 | 36929 ft | 384 kts | 222° |
| 2026-05-08 15:50 | 30.05608 | -12.74978 | 36922 ft | 389 kts | 216° |
| 2026-05-08 15:51 | 30.00311 | -12.78276 | 36924 ft | 393 kts | 216° |
| 2026-05-08 15:51 | 29.95059 | -12.81562 | 36927 ft | 395 kts | 217° |
| 2026-05-08 15:52 | 29.89823 | -12.84874 | 36927 ft | 392 kts | 217° |
| 2026-05-08 15:52 | 29.84773 | -12.88084 | 36929 ft | 394 kts | 217° |
| 2026-05-08 15:53 | 29.79526 | -12.91422 | 36928 ft | 391 kts | 217° |
| 2026-05-08 15:53 | 29.74144 | -12.94846 | 36929 ft | 394 kts | 217° |
| 2026-05-08 15:54 | 29.68849 | -12.98204 | 36910 ft | 383 kts | 217° |
| 2026-05-08 15:54 | 29.66331 | -12.99791 | 36660 ft | 373 kts | 217° |
| 2026-05-08 15:54 | 29.63799 | -13.01391 | 36143 ft | 368 kts | 217° |
| 2026-05-08 15:54 | 29.61305 | -13.02972 | 35531 ft | 365 kts | 217° |
| 2026-05-08 15:55 | 29.58805 | -13.04561 | 34873 ft | 363 kts | 217° |
| 2026-05-08 15:55 | 29.53840 | -13.07716 | 33476 ft | 361 kts | 217° |
| 2026-05-08 15:55 | 29.51360 | -13.09288 | 32813 ft | 362 kts | 217° |
| 2026-05-08 15:56 | 29.48871 | -13.10867 | 31916 ft | 367 kts | 217° |
| 2026-05-08 15:56 | 29.46379 | -13.12447 | 31249 ft | 366 kts | 217° |
| 2026-05-08 15:56 | 29.43899 | -13.14018 | 30749 ft | 380 kts | 217° |
| 2026-05-08 15:56 | 29.41474 | -13.15560 | 30268 ft | 387 kts | 216° |
| 2026-05-08 15:57 | 29.38946 | -13.17154 | 29733 ft | 382 kts | 216° |
| 2026-05-08 15:57 | 29.36315 | -13.18800 | 29277 ft | 374 kts | 216° |
| 2026-05-08 15:57 | 29.33703 | -13.20353 | 28733 ft | 371 kts | 214° |
| 2026-05-08 15:57 | 29.31072 | -13.21808 | 28046 ft | 370 kts | 213° |
| 2026-05-08 15:58 | 29.28472 | -13.23200 | 27650 ft | 361 kts | 212° |
| 2026-05-08 15:58 | 29.26011 | -13.24517 | 26907 ft | 363 kts | 212° |
| 2026-05-08 15:58 | 29.23417 | -13.25919 | 26493 ft | 353 kts | 213° |
| 2026-05-08 15:58 | 29.20839 | -13.27315 | 25965 ft | 348 kts | 213° |
| 2026-05-08 15:59 | 29.18275 | -13.28718 | 25264 ft | 347 kts | 213° |
| 2026-05-08 15:59 | 29.15823 | -13.30057 | 24900 ft | 337 kts | 213° |
| 2026-05-08 15:59 | 29.13409 | -13.31377 | 24229 ft | 337 kts | 213° |
| 2026-05-08 15:59 | 29.10993 | -13.32704 | 23732 ft | 331 kts | 212° |
| 2026-05-08 16:00 | 29.08568 | -13.34031 | 23324 ft | 324 kts | 212° |
| 2026-05-08 16:00 | 29.06222 | -13.35314 | 22643 ft | 325 kts | 212° |
| 2026-05-08 16:00 | 29.03823 | -13.36630 | 22170 ft | 318 kts | 212° |
| 2026-05-08 16:00 | 29.01514 | -13.37891 | 21767 ft | 316 kts | 212° |
| 2026-05-08 16:01 | 28.99162 | -13.39180 | 20957 ft | 321 kts | 211° |
| 2026-05-08 16:01 | 28.96853 | -13.40439 | 20632 ft | 314 kts | 212° |
| 2026-05-08 16:01 | 28.94524 | -13.41714 | 20238 ft | 322 kts | 211° |
| 2026-05-08 16:01 | 28.92258 | -13.42954 | 19522 ft | 327 kts | 211° |
| 2026-05-08 16:02 | 28.89877 | -13.44254 | 18879 ft | 325 kts | 211° |
| 2026-05-08 16:02 | 28.87588 | -13.45494 | 18371 ft | 322 kts | 211° |
| 2026-05-08 16:02 | 28.85267 | -13.46751 | 17791 ft | 318 kts | 211° |
| 2026-05-08 16:02 | 28.82970 | -13.47996 | 17257 ft | 314 kts | 211° |
| 2026-05-08 16:03 | 28.80679 | -13.49238 | 16745 ft | 311 kts | 211° |
| 2026-05-08 16:03 | 28.78528 | -13.50406 | 16229 ft | 309 kts | 211° |
| 2026-05-08 16:03 | 28.76318 | -13.51607 | 15718 ft | 307 kts | 211° |
| 2026-05-08 16:03 | 28.74095 | -13.52817 | 15178 ft | 305 kts | 211° |
| 2026-05-08 16:04 | 28.71903 | -13.54007 | 14653 ft | 303 kts | 211° |
| 2026-05-08 16:04 | 28.69687 | -13.55208 | 14159 ft | 305 kts | 211° |
| 2026-05-08 16:04 | 28.67413 | -13.56446 | 13707 ft | 317 kts | 210° |
| 2026-05-08 16:04 | 28.65108 | -13.57696 | 13243 ft | 317 kts | 210° |
| 2026-05-08 16:05 | 28.62839 | -13.58919 | 12658 ft | 314 kts | 210° |
| 2026-05-08 16:05 | 28.60541 | -13.60160 | 12115 ft | 313 kts | 210° |
| 2026-05-08 16:05 | 28.58256 | -13.61396 | 11492 ft | 312 kts | 210° |
| 2026-05-08 16:05 | 28.55963 | -13.62633 | 11098 ft | 305 kts | 210° |
| 2026-05-08 16:06 | 28.53824 | -13.63789 | 10405 ft | 309 kts | 209° |
| 2026-05-08 16:06 | 28.51621 | -13.64938 | 10233 ft | 295 kts | 208° |
| 2026-05-08 16:06 | 28.49597 | -13.65921 | 10139 ft | 280 kts | 207° |
| 2026-05-08 16:06 | 28.47528 | -13.66906 | 10027 ft | 265 kts | 207° |
| 2026-05-08 16:07 | 28.45510 | -13.67678 | 9737 ft | 261 kts | 194° |
| 2026-05-08 16:07 | 28.43383 | -13.67643 | 9301 ft | 269 kts | 176° |
| 2026-05-08 16:07 | 28.41242 | -13.67185 | 8977 ft | 266 kts | 174° |
| 2026-05-08 16:07 | 28.39119 | -13.66748 | 8521 ft | 268 kts | 176° |
| 2026-05-08 16:08 | 28.36945 | -13.66485 | 8132 ft | 264 kts | 187° |
| 2026-05-08 16:08 | 28.34963 | -13.67100 | 7971 ft | 240 kts | 217° |
| 2026-05-08 16:08 | 28.33578 | -13.68581 | 7737 ft | 228 kts | 231° |
| 2026-05-08 16:08 | 28.32306 | -13.70129 | 7217 ft | 235 kts | 228° |
| 2026-05-08 16:09 | 28.30983 | -13.71615 | 6998 ft | 229 kts | 227° |
| 2026-05-08 16:09 | 28.30106 | -13.72590 | 6809 ft | 226 kts | 227° |
| 2026-05-08 16:09 | 28.28396 | -13.74518 | 6367 ft | 225 kts | 228° |
| 2026-05-08 16:09 | 28.27109 | -13.75984 | 6062 ft | 227 kts | 229° |
| 2026-05-08 16:10 | 28.25828 | -13.77437 | 5920 ft | 215 kts | 228° |
| 2026-05-08 16:10 | 28.24629 | -13.78796 | 5728 ft | 207 kts | 228° |
| 2026-05-08 16:10 | 28.23475 | -13.80104 | 5351 ft | 206 kts | 228° |
| 2026-05-08 16:10 | 28.22328 | -13.81409 | 4987 ft | 204 kts | 230° |
| 2026-05-08 16:11 | 28.21407 | -13.82918 | 4880 ft | 201 kts | 254° |
| 2026-05-08 16:11 | 28.21419 | -13.84735 | 4752 ft | 202 kts | 288° |
| 2026-05-08 16:11 | 28.22264 | -13.86336 | 4535 ft | 204 kts | 310° |
| 2026-05-08 16:11 | 28.23616 | -13.87417 | 4301 ft | 211 kts | 343° |
| 2026-05-08 16:12 | 28.25341 | -13.87353 | 3999 ft | 215 kts | 8° |
| 2026-05-08 16:12 | 28.27070 | -13.87027 | 3729 ft | 213 kts | 1° |
| 2026-05-08 16:12 | 28.28768 | -13.86919 | 3461 ft | 205 kts | 358° |
| 2026-05-08 16:12 | 28.30378 | -13.86875 | 3168 ft | 198 kts | 358° |
| 2026-05-08 16:13 | 28.31887 | -13.86814 | 2740 ft | 185 kts | 359° |
| 2026-05-08 16:13 | 28.33334 | -13.86706 | 2274 ft | 179 kts | 1° |
| 2026-05-08 16:13 | 28.34688 | -13.86558 | 1973 ft | 165 kts | 2° |
| 2026-05-08 16:13 | 28.35964 | -13.86468 | 1748 ft | 159 kts | 358° |
| 2026-05-08 16:14 | 28.37199 | -13.86432 | 1529 ft | 158 kts | 356° |
| 2026-05-08 16:14 | 28.38353 | -13.86459 | 1289 ft | 158 kts | 353° |
| 2026-05-08 16:14 | 28.39464 | -13.86517 | 1049 ft | 151 kts | 354° |
| 2026-05-08 16:14 | 28.40557 | -13.86485 | 801 ft | 153 kts | 357° |
| 2026-05-08 16:15 | 28.41689 | -13.86438 | 598 ft | 152 kts | 355° |
| 2026-05-08 16:15 | 28.42795 | -13.86464 | 359 ft | 149 kts | 356° |
| 2026-05-08 16:15 | 28.43992 | -13.86421 | 186 ft | 146 kts | 355° |
| 2026-05-08 16:15 | 28.45036 | -13.86382 | 88 ft | 124 kts | 356° |
| 2026-05-08 16:16 | 28.45822 | -13.86362 | 101 ft | 67 kts | 356° |
| 2026-05-08 16:16 | 28.46096 | -13.86448 | 107 ft | 18 kts | 333° |
| 2026-05-08 16:16 | 28.46143 | -13.86506 | 113 ft | 3 kts | 269° |
| 2026-05-08 16:16 | 28.46129 | -13.86533 | 115 ft | 8 kts | 213° |
| 2026-05-08 16:17 | 28.46066 | -13.86546 | 115 ft | 8 kts | 181° |
| 2026-05-08 16:17 | 28.46022 | -13.86547 | 115 ft | 8 kts | 182° |
| 2026-05-08 16:17 | 28.45909 | -13.86550 | 114 ft | 14 kts | 179° |
| 2026-05-08 16:17 | 28.45770 | -13.86555 | 119 ft | 17 kts | 182° |
| 2026-05-08 16:18 | 28.45639 | -13.86559 | 121 ft | 16 kts | 181° |
| 2026-05-08 16:18 | 28.45500 | -13.86562 | 123 ft | 15 kts | 182° |
| 2026-05-08 16:18 | 28.45387 | -13.86576 | 125 ft | 12 kts | 215° |
| 2026-05-08 16:18 | 28.45370 | -13.86663 | 130 ft | 6 kts | 269° |
| 2026-05-08 16:19 | 28.45369 | -13.86703 | 132 ft | 5 kts | 261° |
| 2026-05-08 16:19 | 28.45331 | -13.86753 | 131 ft | 3 kts | 253° |
| 2026-05-08 16:19 | 28.45329 | -13.86782 | 131 ft | 2 kts | 269° |
| 2026-05-08 16:19 | 28.45329 | -13.86807 | 131 ft | 2 kts | 272° |
| 2026-05-08 16:20 | 28.45330 | -13.86832 | 131 ft | 0 kts | 270° |